Time;durP1;ratioP1;P1;durP2;ratioP2;P2;SDS_P1;SDS_P2;PMS_P1;PMS_P2;Temp;Humidity;BMP_temperature;BMP_pressure;BME280_temperature;BME280_humidity;BME280_pressure;Samples;Min_cycle;Max_cycle;Signal;HPM_P1;HPM_P2
2022/03/30 00:00:32;;;;;;;0.43;0.43;;;;;;;;;;6151513;23;20013;-57
2022/03/30 00:02:58;;;;;;;0.52;0.52;;;;;;;;;;6153843;23;20025;-56
2022/03/30 00:05:23;;;;;;;0.13;0.13;;;;;;;;;;6154348;23;20001;-55
2022/03/30 00:07:52;;;;;;;1.90;1.73;;;;;;;;;;6127699;23;20010;-54
2022/03/30 00:10:17;;;;;;;0.45;0.45;;;;;;;;;;6153904;23;20226;-57
2022/03/30 00:12:42;;;;;;;7.32;5.93;;;;;;;;;;6153901;23;20021;-56
2022/03/30 00:15:08;;;;;;;0.00;0.00;;;;;;;;;;6153901;23;20005;-55
2022/03/30 00:17:33;;;;;;;5.05;2.80;;;;;;;;;;6154284;23;20002;-57
2022/03/30 00:19:59;;;;;;;1.38;0.90;;;;;;;;;;6153948;23;20005;-55
2022/03/30 00:22:25;;;;;;;3.72;3.53;;;;;;;;;;6154083;23;20000;-55
2022/03/30 00:24:50;;;;;;;3.65;2.10;;;;;;;;;;6153202;23;20013;-57
2022/03/30 00:27:15;;;;;;;5.60;3.55;;;;;;;;;;6153193;23;20015;-57
2022/03/30 00:29:40;;;;;;;0.30;0.28;;;;;;;;;;6152819;23;20021;-53
2022/03/30 00:32:06;;;;;;;3.13;2.83;;;;;;;;;;6153586;23;20416;-56
2022/03/30 00:34:31;;;;;;;4.43;3.83;;;;;;;;;;6153845;23;20001;-55
2022/03/30 00:36:56;;;;;;;0.22;0.22;;;;;;;;;;6153253;23;20013;-56
2022/03/30 00:39:22;;;;;;;1.33;1.27;;;;;;;;;;6153858;23;20077;-54
2022/03/30 00:41:47;;;;;;;4.47;3.25;;;;;;;;;;6153680;23;20013;-55
2022/03/30 00:44:13;;;;;;;2.63;2.53;;;;;;;;;;6153945;23;20056;-54
2022/03/30 00:46:42;;;;;;;5.50;5.22;;;;;;;;;;6153441;23;20001;-56
2022/03/30 00:49:07;;;;;;;1.58;1.35;;;;;;;;;;6153400;23;20012;-58
2022/03/30 00:51:32;;;;;;;0.20;0.20;;;;;;;;;;6154153;23;20412;-53
2022/03/30 00:53:57;;;;;;;1.13;1.13;;;;;;;;;;6153101;23;19997;-55
2022/03/30 00:56:23;;;;;;;1.45;0.70;;;;;;;;;;6153746;23;20072;-57
2022/03/30 00:58:49;;;;;;;0.45;0.45;;;;;;;;;;6153574;23;20005;-53
2022/03/30 01:01:14;;;;;;;5.97;2.42;;;;;;;;;;6153368;23;20009;-55
2022/03/30 01:03:39;;;;;;;7.72;7.47;;;;;;;;;;6153778;23;20006;-54
2022/03/30 01:06:04;;;;;;;3.42;3.15;;;;;;;;;;6153444;23;20064;-56
2022/03/30 01:08:30;;;;;;;0.00;0.00;;;;;;;;;;6153810;23;20002;-57
2022/03/30 01:10:55;;;;;;;2.90;2.80;;;;;;;;;;6153666;23;19997;-53
2022/03/30 01:13:20;;;;;;;1.85;1.75;;;;;;;;;;6127656;23;19993;-55
2022/03/30 01:15:46;;;;;;;0.55;0.55;;;;;;;;;;6153415;23;20060;-57
2022/03/30 01:18:12;;;;;;;0.55;0.55;;;;;;;;;;6153689;23;20362;-57
2022/03/30 01:20:38;;;;;;;7.65;3.30;;;;;;;;;;6153651;23;20427;-57
2022/03/30 01:23:03;;;;;;;0.10;0.10;;;;;;;;;;6152961;23;20060;-55
2022/03/30 01:25:28;;;;;;;0.43;0.43;;;;;;;;;;6153205;23;20008;-56
2022/03/30 01:27:53;;;;;;;0.90;0.90;;;;;;;;;;6153005;23;19994;-57
2022/03/30 01:33:04;;;;;;;0.15;0.15;;;;;;;;;;6153280;23;20064;-56
2022/03/30 01:35:29;;;;;;;0.00;0.00;;;;;;;;;;6153501;23;20072;-57
2022/03/30 01:37:55;;;;;;;1.70;1.60;;;;;;;;;;6152862;23;20009;-56
2022/03/30 01:40:20;;;;;;;0.63;0.63;;;;;;;;;;6153379;23;20092;-55
2022/03/30 01:42:45;;;;;;;4.13;2.42;;;;;;;;;;6153298;23;20008;-56
2022/03/30 01:45:15;;;;;;;3.10;2.88;;;;;;;;;;6152813;23;20012;-56
2022/03/30 01:47:40;;;;;;;4.18;2.30;;;;;;;;;;6153489;23;19997;-57
2022/03/30 01:50:06;;;;;;;1.88;1.77;;;;;;;;;;6152726;23;20491;-57
2022/03/30 01:52:31;;;;;;;0.52;0.30;;;;;;;;;;6153358;23;20004;-53
2022/03/30 01:54:57;;;;;;;0.28;0.28;;;;;;;;;;6152607;23;20327;-57
2022/03/30 01:57:23;;;;;;;0.03;0.03;;;;;;;;;;6153559;23;20411;-57
2022/03/30 01:59:48;;;;;;;0.45;0.45;;;;;;;;;;6153092;23;20006;-56
2022/03/30 02:02:14;;;;;;;3.50;1.55;;;;;;;;;;6126827;23;20032;-54
2022/03/30 02:04:39;;;;;;;0.03;0.03;;;;;;;;;;6152779;23;20116;-57
2022/03/30 02:07:05;;;;;;;2.05;1.70;;;;;;;;;;6152557;23;20001;-57
2022/03/30 02:09:30;;;;;;;2.65;2.45;;;;;;;;;;6153040;23;20001;-57
2022/03/30 02:11:55;;;;;;;1.35;1.25;;;;;;;;;;6152694;23;20004;-57
2022/03/30 02:14:21;;;;;;;1.13;1.13;;;;;;;;;;6152797;23;20006;-56
2022/03/30 02:16:46;;;;;;;2.92;2.33;;;;;;;;;;6152960;23;20002;-57
2022/03/30 02:19:12;;;;;;;0.45;0.45;;;;;;;;;;6152960;23;20020;-54
2022/03/30 02:21:37;;;;;;;1.08;1.08;;;;;;;;;;6152795;23;20009;-56
2022/03/30 02:24:02;;;;;;;2.20;1.10;;;;;;;;;;6151842;23;20001;-53
2022/03/30 02:26:29;;;;;;;3.22;1.27;;;;;;;;;;6152673;23;20002;-53
2022/03/30 02:28:54;;;;;;;1.42;1.35;;;;;;;;;;6152492;23;20041;-54
2022/03/30 02:31:20;;;;;;;0.10;0.10;;;;;;;;;;6152356;23;20028;-55
2022/03/30 02:33:46;;;;;;;1.90;1.55;;;;;;;;;;6152905;23;20442;-55
2022/03/30 02:36:11;;;;;;;3.28;2.28;;;;;;;;;;6152295;23;20005;-56
2022/03/30 02:38:36;;;;;;;2.15;2.05;;;;;;;;;;6152556;23;20339;-56
2022/03/30 02:41:03;;;;;;;0.70;0.70;;;;;;;;;;6152153;23;20297;-56
2022/03/30 02:43:28;;;;;;;0.80;0.47;;;;;;;;;;6152780;23;20001;-56
2022/03/30 02:45:53;;;;;;;0.00;0.00;;;;;;;;;;6152304;23;20442;-54
2022/03/30 02:48:18;;;;;;;0.63;0.63;;;;;;;;;;6152738;23;20081;-53
2022/03/30 02:50:51;;;;;;;0.00;0.00;;;;;;;;;;6152675;23;19998;-55
2022/03/30 02:53:17;;;;;;;0.00;0.00;;;;;;;;;;6152922;23;20025;-56
2022/03/30 02:55:42;;;;;;;0.00;0.00;;;;;;;;;;6152714;23;20304;-53
2022/03/30 02:58:09;;;;;;;0.60;0.13;;;;;;;;;;6152262;23;20415;-54
2022/03/30 03:00:35;;;;;;;0.00;0.00;;;;;;;;;;6152951;23;20079;-56
2022/03/30 03:03:01;;;;;;;0.30;0.30;;;;;;;;;;6150863;23;19997;-54
2022/03/30 03:05:31;;;;;;;0.20;0.20;;;;;;;;;;6151354;23;20015;-55
2022/03/30 03:07:57;;;;;;;0.00;0.00;;;;;;;;;;6152319;23;20021;-54
2022/03/30 03:10:22;;;;;;;3.83;3.63;;;;;;;;;;6126368;23;20002;-56
2022/03/30 03:12:47;;;;;;;0.05;0.05;;;;;;;;;;6152982;23;20020;-55
2022/03/30 03:15:13;;;;;;;0.70;0.70;;;;;;;;;;6152214;23;20052;-54
2022/03/30 03:17:38;;;;;;;1.98;1.25;;;;;;;;;;6153029;23;19998;-54
2022/03/30 03:20:03;;;;;;;1.30;1.25;;;;;;;;;;6151674;23;20036;-56
2022/03/30 03:22:28;;;;;;;0.00;0.00;;;;;;;;;;6152473;23;20502;-56
2022/03/30 03:24:54;;;;;;;0.22;0.05;;;;;;;;;;6152124;23;19997;-55
2022/03/30 03:27:19;;;;;;;2.35;2.25;;;;;;;;;;6152380;23;20088;-54
2022/03/30 03:29:44;;;;;;;1.80;1.20;;;;;;;;;;6151898;23;20424;-55
2022/03/30 03:32:09;;;;;;;1.45;1.35;;;;;;;;;;6152279;23;20507;-55
2022/03/30 03:34:34;;;;;;;2.55;2.25;;;;;;;;;;6150686;23;20002;-53
2022/03/30 03:37:00;;;;;;;1.33;0.85;;;;;;;;;;6152185;23;20081;-56
2022/03/30 03:39:25;;;;;;;0.00;0.00;;;;;;;;;;6152315;23;20006;-55
2022/03/30 03:41:50;;;;;;;0.85;0.85;;;;;;;;;;6152243;23;20028;-56
2022/03/30 03:44:15;;;;;;;0.00;0.00;;;;;;;;;;6152581;23;20413;-56
2022/03/30 03:46:40;;;;;;;0.35;0.35;;;;;;;;;;6152726;23;20028;-55
2022/03/30 03:49:06;;;;;;;6.40;4.38;;;;;;;;;;6151858;23;19993;-56
2022/03/30 03:51:31;;;;;;;1.23;1.13;;;;;;;;;;6152679;23;20068;-55
2022/03/30 03:53:56;;;;;;;2.90;1.80;;;;;;;;;;6151621;23;20028;-55
2022/03/30 03:56:21;;;;;;;1.55;1.15;;;;;;;;;;6152133;23;19994;-56
2022/03/30 03:58:49;;;;;;;1.25;1.25;;;;;;;;;;6152170;23;20001;-56
2022/03/30 04:01:14;;;;;;;1.52;1.48;;;;;;;;;;6151380;23;20439;-55
2022/03/30 04:03:39;;;;;;;0.00;0.00;;;;;;;;;;6152628;23;20052;-57
2022/03/30 04:06:07;;;;;;;1.55;0.73;;;;;;;;;;6152138;23;20088;-55
2022/03/30 04:08:32;;;;;;;0.00;0.00;;;;;;;;;;6153952;23;20017;-54
2022/03/30 04:10:57;;;;;;;3.70;3.40;;;;;;;;;;6153767;23;19994;-57
2022/03/30 04:13:23;;;;;;;2.15;2.08;;;;;;;;;;6154022;23;20001;-53
2022/03/30 04:15:48;;;;;;;0.20;0.20;;;;;;;;;;6153371;23;20001;-58
2022/03/30 04:18:14;;;;;;;1.80;1.80;;;;;;;;;;6153059;23;20006;-57
2022/03/30 04:20:41;;;;;;;9.38;4.38;;;;;;;;;;6153205;23;19997;-55
2022/03/30 04:23:06;;;;;;;0.05;0.05;;;;;;;;;;6153254;23;20080;-55
2022/03/30 04:25:31;;;;;;;1.65;1.65;;;;;;;;;;6153549;23;20024;-55
2022/03/30 04:27:59;;;;;;;1.65;1.60;;;;;;;;;;6152733;23;20083;-55
2022/03/30 04:30:25;;;;;;;0.28;0.28;;;;;;;;;;6152994;23;20108;-55
2022/03/30 04:32:51;;;;;;;4.05;3.65;;;;;;;;;;6153495;23;20412;-54
2022/03/30 04:35:25;;;;;;;5.13;4.78;;;;;;;;;;6152645;23;20072;-56
2022/03/30 04:37:52;;;;;;;0.00;0.00;;;;;;;;;;6152244;23;20013;-55
2022/03/30 04:40:17;;;;;;;0.00;0.00;;;;;;;;;;6152342;23;20109;-53
2022/03/30 04:42:42;;;;;;;3.17;2.00;;;;;;;;;;6152740;23;20088;-56
2022/03/30 04:45:08;;;;;;;3.45;1.75;;;;;;;;;;6152070;23;19998;-56
2022/03/30 04:47:33;;;;;;;0.00;0.00;;;;;;;;;;6152183;23;20002;-56
2022/03/30 04:49:58;;;;;;;1.65;1.15;;;;;;;;;;6152861;23;19998;-56
2022/03/30 04:52:23;;;;;;;0.50;0.50;;;;;;;;;;6152853;23;20001;-55
2022/03/30 04:54:49;;;;;;;1.98;1.73;;;;;;;;;;6153154;23;19994;-57
2022/03/30 04:57:14;;;;;;;1.75;1.65;;;;;;;;;;6152484;23;20009;-58
2022/03/30 04:59:39;;;;;;;3.67;3.38;;;;;;;;;;6153072;23;20307;-56
2022/03/30 05:02:04;;;;;;;2.03;2.03;;;;;;;;;;6152510;23;20002;-57
2022/03/30 05:04:32;;;;;;;0.00;0.00;;;;;;;;;;6153057;23;20001;-57
2022/03/30 05:06:57;;;;;;;12.60;4.25;;;;;;;;;;6127856;23;20021;-57
2022/03/30 05:09:23;;;;;;;2.63;2.20;;;;;;;;;;6154385;23;19994;-57
2022/03/30 05:11:49;;;;;;;2.90;1.25;;;;;;;;;;6153432;23;19993;-55
2022/03/30 05:14:14;;;;;;;1.48;1.48;;;;;;;;;;6152985;23;20105;-56
2022/03/30 05:16:43;;;;;;;36.83;3.35;;;;;;;;;;6153836;23;20052;-54
2022/03/30 05:19:09;;;;;;;1.70;1.25;;;;;;;;;;6153975;23;20005;-56
2022/03/30 05:21:34;;;;;;;1.65;1.10;;;;;;;;;;6154313;23;20056;-59
2022/03/30 05:24:00;;;;;;;3.50;2.83;;;;;;;;;;6153688;23;20084;-57
2022/03/30 05:26:26;;;;;;;5.93;3.20;;;;;;;;;;6153490;23;20005;-57
2022/03/30 05:28:51;;;;;;;7.97;6.57;;;;;;;;;;6153677;23;20045;-58
2022/03/30 05:31:16;;;;;;;4.50;2.80;;;;;;;;;;6153268;23;20411;-57
2022/03/30 05:33:41;;;;;;;0.75;0.75;;;;;;;;;;6153451;23;20073;-57
2022/03/30 05:36:07;;;;;;;5.80;5.18;;;;;;;;;;6152973;23;20013;-58
2022/03/30 05:38:32;;;;;;;0.00;0.00;;;;;;;;;;6154005;23;20068;-59
2022/03/30 05:40:58;;;;;;;1.45;0.95;;;;;;;;;;6152935;23;20005;-59
2022/03/30 05:43:25;;;;;;;9.65;4.10;;;;;;;;;;6153113;23;20004;-60
2022/03/30 05:45:50;;;;;;;0.00;0.00;;;;;;;;;;6151553;23;20001;-59
2022/03/30 05:48:16;;;;;;;1.75;1.45;;;;;;;;;;6151828;23;20080;-59
2022/03/30 05:50:41;;;;;;;0.55;0.55;;;;;;;;;;6151412;23;20064;-60
2022/03/30 05:53:06;;;;;;;1.55;0.85;;;;;;;;;;6151584;23;19994;-59
2022/03/30 05:55:32;;;;;;;2.83;2.58;;;;;;;;;;6152289;23;20013;-59
2022/03/30 05:57:57;;;;;;;0.00;0.00;;;;;;;;;;6150991;23;20005;-60
2022/03/30 06:00:22;;;;;;;1.30;0.35;;;;;;;;;;6152369;23;19997;-58
2022/03/30 06:02:47;;;;;;;0.00;0.00;;;;;;;;;;6151627;23;19998;-59
2022/03/30 06:05:13;;;;;;;0.03;0.03;;;;;;;;;;6151221;23;20004;-58
2022/03/30 06:07:38;;;;;;;0.00;0.00;;;;;;;;;;6152588;23;20029;-59
2022/03/30 06:10:04;;;;;;;1.38;1.35;;;;;;;;;;6151102;23;20004;-59
2022/03/30 06:12:29;;;;;;;0.40;0.40;;;;;;;;;;6125352;23;20001;-59
2022/03/30 06:14:55;;;;;;;0.10;0.10;;;;;;;;;;6151402;23;20003;-58
2022/03/30 06:17:20;;;;;;;1.85;1.75;;;;;;;;;;6151766;23;20001;-59
2022/03/30 06:19:50;;;;;;;0.00;0.00;;;;;;;;;;6151837;23;20479;-60
2022/03/30 06:22:15;;;;;;;;;;;;;;;;;;6152223;23;20002;-58
2022/03/30 06:24:40;;;;;;;3.95;3.63;;;;;;;;;;6125173;23;20258;-61
2022/03/30 06:27:06;;;;;;;0.80;0.80;;;;;;;;;;6151005;23;20008;-57
2022/03/30 06:29:35;;;;;;;0.00;0.00;;;;;;;;;;6151370;23;20285;-57
2022/03/30 06:32:02;;;;;;;0.00;0.00;;;;;;;;;;6151030;23;20088;-59
2022/03/30 06:34:27;;;;;;;0.20;0.20;;;;;;;;;;6151685;23;20312;-58
2022/03/30 06:36:53;;;;;;;1.65;1.30;;;;;;;;;;6151538;23;20009;-57
2022/03/30 06:39:18;;;;;;;0.28;0.28;;;;;;;;;;6150876;23;20021;-58
2022/03/30 06:41:44;;;;;;;8.90;4.80;;;;;;;;;;6150877;23;20009;-59
2022/03/30 06:44:09;;;;;;;4.43;4.13;;;;;;;;;;6151092;23;20001;-59
2022/03/30 06:46:38;;;;;;;4.57;2.55;;;;;;;;;;6151668;23;20002;-59
2022/03/30 06:49:04;;;;;;;3.25;2.72;;;;;;;;;;6151845;23;20387;-57
2022/03/30 06:51:29;;;;;;;4.47;4.28;;;;;;;;;;6152193;23;20062;-57
2022/03/30 06:53:54;;;;;;;5.03;4.18;;;;;;;;;;6152590;23;19997;-56
2022/03/30 06:56:20;;;;;;;0.00;0.00;;;;;;;;;;6152077;23;20006;-57
2022/03/30 06:58:45;;;;;;;4.53;4.05;;;;;;;;;;6152464;23;20020;-57
2022/03/30 07:01:12;;;;;;;0.90;0.90;;;;;;;;;;6153031;23;20132;-57
2022/03/30 07:03:38;;;;;;;0.00;0.00;;;;;;;;;;6153432;23;20425;-57
2022/03/30 07:06:03;;;;;;;3.65;2.10;;;;;;;;;;6152310;23;20319;-58
2022/03/30 07:11:12;;;;;;;0.35;0.35;;;;;;;;;;6152528;23;20009;-59
2022/03/30 07:13:37;;;;;;;0.00;0.00;;;;;;;;;;6152947;23;20002;-57
2022/03/30 07:16:03;;;;;;;1.00;1.00;;;;;;;;;;6151286;23;20052;-58
2022/03/30 07:18:28;;;;;;;1.52;1.38;;;;;;;;;;6151396;23;20001;-56
2022/03/30 07:20:54;;;;;;;0.43;0.43;;;;;;;;;;6153199;23;20069;-58
2022/03/30 07:23:20;;;;;;;0.98;0.98;;;;;;;;;;6153041;23;20008;-56
2022/03/30 07:25:45;;;;;;;4.35;0.95;;;;;;;;;;6153101;23;20008;-58
2022/03/30 07:28:11;;;;;;;2.42;2.42;;;;;;;;;;6153185;23;19997;-57
2022/03/30 07:30:37;;;;;;;2.45;2.28;;;;;;;;;;6153029;23;20025;-58
2022/03/30 07:33:02;;;;;;;3.63;3.25;;;;;;;;;;6153279;23;20068;-58
2022/03/30 07:35:28;;;;;;;0.00;0.00;;;;;;;;;;6153423;23;20392;-58
2022/03/30 07:37:54;;;;;;;2.92;1.00;;;;;;;;;;6154952;23;20467;-59
2022/03/30 07:40:21;;;;;;;0.00;0.00;;;;;;;;;;6155085;23;19993;-58
2022/03/30 07:42:47;;;;;;;0.00;0.00;;;;;;;;;;6155443;23;20013;-58
2022/03/30 07:45:13;;;;;;;0.52;0.45;;;;;;;;;;6128718;23;20004;-57
2022/03/30 07:47:38;;;;;;;3.63;0.30;;;;;;;;;;6155091;23;20051;-58
2022/03/30 07:50:05;;;;;;;0.00;0.00;;;;;;;;;;6154952;23;20439;-58
2022/03/30 07:52:30;;;;;;;0.00;0.00;;;;;;;;;;6155519;23;20005;-56
2022/03/30 07:54:55;;;;;;;1.05;1.00;;;;;;;;;;6155283;23;20004;-58
2022/03/30 07:57:26;;;;;;;0.00;0.00;;;;;;;;;;6155184;23;20005;-57
2022/03/30 07:59:51;;;;;;;4.78;2.47;;;;;;;;;;6156014;23;20025;-57
2022/03/30 08:02:18;;;;;;;2.67;2.58;;;;;;;;;;6155317;23;20742;-58
2022/03/30 08:04:44;;;;;;;1.33;1.30;;;;;;;;;;6155484;23;20004;-59
2022/03/30 08:07:12;;;;;;;0.13;0.10;;;;;;;;;;6155655;23;20002;-58
2022/03/30 08:09:37;;;;;;;2.65;2.50;;;;;;;;;;6155540;23;20009;-58
2022/03/30 08:12:03;;;;;;;0.10;0.10;;;;;;;;;;6155125;23;19997;-59
2022/03/30 08:14:28;;;;;;;0.00;0.00;;;;;;;;;;6155423;23;20052;-57
2022/03/30 08:16:53;;;;;;;9.07;8.27;;;;;;;;;;6155592;23;20012;-58
2022/03/30 08:19:19;;;;;;;0.30;0.30;;;;;;;;;;6154610;23;20002;-59
2022/03/30 08:24:28;;;;;;;2.83;2.53;;;;;;;;;;6155192;23;20067;-58
2022/03/30 08:26:53;;;;;;;0.00;0.00;;;;;;;;;;6154560;23;20001;-58
2022/03/30 08:29:21;;;;;;;2.85;2.75;;;;;;;;;;6154526;23;20121;-58
2022/03/30 08:31:48;;;;;;;0.60;0.43;;;;;;;;;;6154633;23;20486;-58
2022/03/30 08:34:14;;;;;;;0.03;0.03;;;;;;;;;;6154422;23;20415;-58
2022/03/30 08:36:40;;;;;;;0.13;0.13;;;;;;;;;;6155293;23;19997;-58
2022/03/30 08:39:11;;;;;;;0.60;0.60;;;;;;;;;;6154350;23;20005;-58
2022/03/30 08:41:39;;;;;;;0.30;0.30;;;;;;;;;;6128756;23;20009;-58
2022/03/30 08:44:04;;;;;;;8.82;4.53;;;;;;;;;;6154413;23;20021;-58
2022/03/30 08:46:30;;;;;;;5.03;3.17;;;;;;;;;;6154738;23;20005;-58
2022/03/30 08:48:55;;;;;;;3.28;3.03;;;;;;;;;;6153588;23;19998;-57
2022/03/30 08:51:21;;;;;;;8.93;7.85;;;;;;;;;;6153907;23;20004;-58
2022/03/30 08:53:48;;;;;;;5.78;5.35;;;;;;;;;;6154241;23;20367;-58
2022/03/30 08:56:14;;;;;;;7.55;4.72;;;;;;;;;;6154019;23;20004;-59
2022/03/30 08:58:39;;;;;;;6.55;5.47;;;;;;;;;;6154500;23;20013;-59
2022/03/30 09:01:08;;;;;;;5.45;5.10;;;;;;;;;;6153654;23;20097;-59
2022/03/30 09:03:35;;;;;;;6.30;5.57;;;;;;;;;;6153501;23;20006;-58
2022/03/30 09:06:01;;;;;;;6.22;5.68;;;;;;;;;;6153312;23;20065;-59
2022/03/30 09:08:27;;;;;;;0.00;0.00;;;;;;;;;;6154082;23;20005;-58
2022/03/30 09:10:54;;;;;;;1.95;1.50;;;;;;;;;;6154411;23;20000;-59
2022/03/30 09:13:19;;;;;;;9.30;8.00;;;;;;;;;;6154354;23;20434;-60
2022/03/30 09:15:48;;;;;;;12.23;8.07;;;;;;;;;;6154552;23;19998;-58
2022/03/30 09:18:15;;;;;;;10.98;7.50;;;;;;;;;;6154151;23;20072;-58
2022/03/30 09:20:41;;;;;;;3.83;1.10;;;;;;;;;;6154674;23;20005;-59
2022/03/30 09:23:08;;;;;;;9.32;5.07;;;;;;;;;;6154228;23;20072;-58
2022/03/30 09:25:34;;;;;;;2.58;2.45;;;;;;;;;;6153818;23;20073;-59
2022/03/30 09:27:59;;;;;;;8.73;5.88;;;;;;;;;;6153985;23;20022;-58
2022/03/30 09:30:25;;;;;;;3.58;3.28;;;;;;;;;;6153881;23;20072;-59
2022/03/30 09:32:52;;;;;;;9.05;5.07;;;;;;;;;;6153720;23;20009;-58
2022/03/30 09:35:24;;;;;;;3.05;2.67;;;;;;;;;;6154102;23;20378;-60
2022/03/30 09:37:59;;;;;;;3.80;3.60;;;;;;;;;;6153761;23;20327;-57
2022/03/30 09:40:32;;;;;;;3.78;2.05;;;;;;;;;;6153169;23;20013;-59
2022/03/30 09:43:13;;;;;;;3.80;3.10;;;;;;;;;;6153779;23;20009;-59
2022/03/30 09:45:42;;;;;;;2.13;1.80;;;;;;;;;;6153843;23;20411;-60
2022/03/30 09:48:35;;;;;;;3.40;3.10;;;;;;;;;;6152069;23;20009;-58
2022/03/30 09:51:02;;;;;;;3.38;2.45;;;;;;;;;;6147713;23;20000;-59
2022/03/30 09:53:29;;;;;;;8.15;4.13;;;;;;;;;;6153610;23;20449;-58
2022/03/30 09:55:58;;;;;;;3.53;2.63;;;;;;;;;;6153543;23;20025;-59
2022/03/30 09:58:25;;;;;;;7.57;6.93;;;;;;;;;;6152274;23;20009;-59
2022/03/30 10:01:03;;;;;;;0.80;0.80;;;;;;;;;;6152932;23;20017;-59
2022/03/30 10:03:48;;;;;;;0.10;0.10;;;;;;;;;;6152434;23;20085;-57
2022/03/30 10:06:33;;;;;;;6.40;5.68;;;;;;;;;;6152741;23;20307;-59
2022/03/30 10:08:58;;;;;;;6.85;2.22;;;;;;;;;;6153226;23;20005;-59
2022/03/30 10:11:25;;;;;;;1.60;1.48;;;;;;;;;;6152739;23;20368;-58
2022/03/30 10:13:54;;;;;;;3.38;1.98;;;;;;;;;;6152474;23;20076;-58
2022/03/30 10:16:20;;;;;;;4.68;4.18;;;;;;;;;;6152653;23;20033;-58
2022/03/30 10:18:47;;;;;;;1.48;1.40;;;;;;;;;;6152514;23;20096;-58
2022/03/30 10:21:22;;;;;;;1.20;1.15;;;;;;;;;;6153144;23;20056;-58
2022/03/30 10:23:57;;;;;;;3.42;0.68;;;;;;;;;;6153157;23;20005;-60
2022/03/30 10:26:34;;;;;;;2.50;0.57;;;;;;;;;;6153025;23;19997;-58
2022/03/30 10:29:08;;;;;;;3.53;2.50;;;;;;;;;;6152544;23;20021;-59
2022/03/30 10:31:34;;;;;;;3.92;3.55;;;;;;;;;;6153243;23;20285;-60
2022/03/30 10:34:19;;;;;;;3.83;1.80;;;;;;;;;;6152193;23;20012;-58
2022/03/30 10:36:57;;;;;;;5.82;4.82;;;;;;;;;;6153107;23;20002;-59
2022/03/30 10:39:26;;;;;;;2.67;1.45;;;;;;;;;;6152469;23;20051;-60
2022/03/30 10:41:52;;;;;;;4.00;3.40;;;;;;;;;;6153142;23;20005;-59
2022/03/30 10:44:35;;;;;;;6.43;3.00;;;;;;;;;;6152513;23;20033;-59
2022/03/30 10:47:08;;;;;;;0.68;0.68;;;;;;;;;;6152320;23;20008;-59
2022/03/30 10:49:43;;;;;;;0.47;0.47;;;;;;;;;;6153016;23;20064;-57
2022/03/30 10:52:41;;;;;;;0.00;0.00;;;;;;;;;;6152515;23;19994;-57
2022/03/30 10:55:12;;;;;;;8.25;4.32;;;;;;;;;;6087691;23;19997;-59
2022/03/30 10:57:43;;;;;;;2.70;2.63;;;;;;;;;;6152398;23;20001;-58
2022/03/30 11:00:15;;;;;;;6.88;2.20;;;;;;;;;;6152234;23;20392;-58
2022/03/30 11:02:41;;;;;;;1.55;1.45;;;;;;;;;;6152482;23;20057;-58
2022/03/30 11:05:10;;;;;;;2.67;2.53;;;;;;;;;;6152617;23;20006;-57
2022/03/30 11:07:36;;;;;;;3.80;2.88;;;;;;;;;;6152584;23;20032;-58
2022/03/30 11:10:24;;;;;;;3.42;2.85;;;;;;;;;;6152511;23;19998;-58
2022/03/30 11:12:59;;;;;;;0.73;0.43;;;;;;;;;;6151329;23;20048;-58
2022/03/30 11:15:24;;;;;;;1.80;1.70;;;;;;;;;;6152036;23;20001;-59
2022/03/30 11:17:49;;;;;;;1.55;1.45;;;;;;;;;;6152782;23;20446;-59
2022/03/30 11:20:16;;;;;;;4.65;3.00;;;;;;;;;;6152662;23;20008;-59
2022/03/30 11:22:44;;;;;;;3.38;3.05;;;;;;;;;;6152338;23;20416;-57
2022/03/30 11:25:11;;;;;;;2.38;2.17;;;;;;;;;;6152031;23;19999;-57
2022/03/30 11:27:36;;;;;;;1.30;1.27;;;;;;;;;;6152036;23;20001;-57
2022/03/30 11:30:12;;;;;;;2.28;1.23;;;;;;;;;;6151605;23;20021;-58
2022/03/30 11:32:42;;;;;;;1.98;1.85;;;;;;;;;;6152151;23;19998;-58
2022/03/30 11:35:12;;;;;;;0.30;0.30;;;;;;;;;;6151202;23;20034;-58
2022/03/30 11:37:41;;;;;;;2.30;1.77;;;;;;;;;;6151802;23;20215;-56
2022/03/30 11:40:09;;;;;;;;;;;;;;;;;;6152116;23;20008;-58
2022/03/30 11:42:37;;;;;;;3.08;2.88;;;;;;;;;;6151708;23;19955;-57
2022/03/30 11:45:19;;;;;;;6.85;3.42;;;;;;;;;;6152775;23;20001;-57
2022/03/30 11:47:44;;;;;;;1.33;1.33;;;;;;;;;;6126200;23;19998;-56
2022/03/30 11:50:10;;;;;;;0.15;0.15;;;;;;;;;;6151584;23;19997;-58
2022/03/30 11:52:38;;;;;;;0.40;0.40;;;;;;;;;;6151674;23;20024;-58
2022/03/30 11:55:04;;;;;;;2.42;2.33;;;;;;;;;;6152029;23;20447;-58
2022/03/30 11:57:37;;;;;;;10.40;3.75;;;;;;;;;;6151983;23;20066;-56
2022/03/30 12:00:09;;;;;;;0.45;0.45;;;;;;;;;;6151758;23;20384;-55
2022/03/30 12:02:34;;;;;;;5.00;4.60;;;;;;;;;;6151907;23;20085;-59
2022/03/30 12:04:59;;;;;;;1.95;1.85;;;;;;;;;;6152352;23;20021;-57
2022/03/30 12:07:24;;;;;;;1.48;1.38;;;;;;;;;;6151804;23;20006;-58
2022/03/30 12:09:52;;;;;;;1.88;1.67;;;;;;;;;;6151752;23;20384;-58
2022/03/30 12:12:24;;;;;;;1.73;1.45;;;;;;;;;;6151928;23;19997;-56
2022/03/30 12:14:59;;;;;;;1.73;1.63;;;;;;;;;;6151514;23;20288;-57
2022/03/30 12:17:25;;;;;;;6.50;1.65;;;;;;;;;;6151323;23;20036;-56
2022/03/30 12:19:51;;;;;;;4.78;3.25;;;;;;;;;;6151763;23;20001;-58
2022/03/30 12:22:16;;;;;;;0.00;0.00;;;;;;;;;;6151369;23;20006;-57
2022/03/30 12:24:42;;;;;;;5.43;2.72;;;;;;;;;;6152779;23;20092;-57
2022/03/30 12:27:07;;;;;;;2.08;1.98;;;;;;;;;;6153077;23;20005;-57
2022/03/30 12:29:32;;;;;;;0.57;0.57;;;;;;;;;;6152550;23;20088;-58
2022/03/30 12:31:59;;;;;;;3.70;1.05;;;;;;;;;;6153894;23;20005;-57
2022/03/30 12:34:25;;;;;;;2.95;2.70;;;;;;;;;;6152018;23;20780;-57
2022/03/30 12:36:50;;;;;;;1.80;1.73;;;;;;;;;;6150383;23;20656;-57
2022/03/30 12:39:16;;;;;;;1.35;1.02;;;;;;;;;;6152821;23;20009;-58
2022/03/30 12:41:41;;;;;;;1.75;1.35;;;;;;;;;;6153277;23;20073;-56
2022/03/30 12:44:07;;;;;;;3.33;3.03;;;;;;;;;;6152744;23;20056;-59
2022/03/30 12:46:32;;;;;;;2.28;2.08;;;;;;;;;;6153176;23;20002;-58
2022/03/30 12:49:08;;;;;;;4.50;2.97;;;;;;;;;;6152907;23;19997;-56
2022/03/30 12:51:34;;;;;;;3.03;1.83;;;;;;;;;;6153138;23;20005;-57
2022/03/30 12:54:00;;;;;;;3.22;1.50;;;;;;;;;;6153352;23;20044;-57
2022/03/30 12:56:25;;;;;;;3.80;2.83;;;;;;;;;;6153363;23;20018;-57
2022/03/30 12:58:54;;;;;;;4.53;0.75;;;;;;;;;;6153241;23;20624;-58
2022/03/30 13:01:31;;;;;;;2.08;1.98;;;;;;;;;;6152620;23;20033;-58
2022/03/30 13:03:57;;;;;;;7.63;2.90;;;;;;;;;;6152021;23;20052;-58
2022/03/30 13:06:22;;;;;;;0.35;0.35;;;;;;;;;;6152614;23;20005;-57
2022/03/30 13:09:07;;;;;;;3.08;2.78;;;;;;;;;;6153468;23;20356;-57
2022/03/30 13:11:32;;;;;;;4.40;3.85;;;;;;;;;;6153341;23;19997;-57
2022/03/30 13:13:58;;;;;;;2.83;2.80;;;;;;;;;;6152024;23;20024;-57
2022/03/30 13:16:29;;;;;;;5.30;3.65;;;;;;;;;;6152235;23;20005;-56
2022/03/30 13:19:08;;;;;;;3.78;3.45;;;;;;;;;;6152461;23;20060;-56
2022/03/30 13:21:38;;;;;;;3.95;3.58;;;;;;;;;;6152564;23;20049;-56
2022/03/30 13:24:10;;;;;;;0.47;0.32;;;;;;;;;;6124205;23;20005;-57
2022/03/30 13:26:36;;;;;;;3.15;2.92;;;;;;;;;;6151807;23;20008;-57
2022/03/30 13:29:03;;;;;;;2.58;2.35;;;;;;;;;;6149696;23;20010;-57
2022/03/30 13:31:30;;;;;;;4.03;2.95;;;;;;;;;;6151584;23;20021;-58
2022/03/30 13:33:58;;;;;;;4.30;3.38;;;;;;;;;;6152491;23;19997;-57
2022/03/30 13:36:23;;;;;;;2.13;1.73;;;;;;;;;;6151047;23;20462;-58
2022/03/30 13:38:50;;;;;;;1.17;1.15;;;;;;;;;;6152181;23;19993;-56
2022/03/30 13:41:18;;;;;;;7.95;5.32;;;;;;;;;;6125040;23;20005;-57
2022/03/30 13:43:44;;;;;;;3.55;3.10;;;;;;;;;;6152695;23;20009;-57
2022/03/30 13:46:09;;;;;;;1.55;1.45;;;;;;;;;;6151703;23;20009;-57
2022/03/30 13:48:35;;;;;;;2.30;2.08;;;;;;;;;;6152792;23;20001;-56
2022/03/30 13:51:00;;;;;;;6.50;4.57;;;;;;;;;;6152333;23;20675;-58
2022/03/30 13:53:36;;;;;;;2.17;2.08;;;;;;;;;;6152158;23;20006;-55
2022/03/30 13:56:02;;;;;;;4.10;3.70;;;;;;;;;;6152479;23;20114;-58
2022/03/30 13:58:30;;;;;;;3.97;3.45;;;;;;;;;;6151112;23;20076;-55
2022/03/30 14:00:55;;;;;;;3.63;3.13;;;;;;;;;;6150121;23;20088;-58
2022/03/30 14:03:21;;;;;;;2.33;2.13;;;;;;;;;;6151784;23;20604;-57
2022/03/30 14:05:46;;;;;;;6.10;5.40;;;;;;;;;;6151824;23;20088;-57
2022/03/30 14:08:11;;;;;;;4.20;3.88;;;;;;;;;;6124206;23;20403;-57
2022/03/30 14:10:37;;;;;;;5.78;2.22;;;;;;;;;;6152113;23;20077;-58
2022/03/30 14:13:02;;;;;;;0.47;0.28;;;;;;;;;;6152219;23;20399;-57
2022/03/30 14:15:28;;;;;;;0.00;0.00;;;;;;;;;;6151061;23;20021;-56
2022/03/30 14:17:53;;;;;;;9.38;5.07;;;;;;;;;;6150948;23;20004;-57
2022/03/30 14:20:19;;;;;;;8.50;3.17;;;;;;;;;;6152010;23;20004;-56
2022/03/30 14:22:45;;;;;;;2.75;2.63;;;;;;;;;;6151880;23;20013;-57
2022/03/30 14:25:14;;;;;;;2.63;1.98;;;;;;;;;;6150869;23;19998;-57
2022/03/30 14:27:39;;;;;;;1.00;1.00;;;;;;;;;;6152147;23;20001;-58
2022/03/30 14:30:05;;;;;;;8.48;3.88;;;;;;;;;;6151764;23;20021;-57
2022/03/30 14:32:31;;;;;;;0.35;0.25;;;;;;;;;;6151843;23;20010;-56
2022/03/30 14:34:56;;;;;;;2.85;2.25;;;;;;;;;;6152094;23;20438;-57
2022/03/30 14:37:21;;;;;;;8.25;5.47;;;;;;;;;;6150173;23;20436;-56
2022/03/30 14:39:47;;;;;;;4.28;3.50;;;;;;;;;;6152357;23;19998;-57
2022/03/30 14:42:12;;;;;;;1.85;1.45;;;;;;;;;;6151615;23;20028;-58
2022/03/30 14:44:37;;;;;;;2.58;2.40;;;;;;;;;;6152327;23;20007;-58
2022/03/30 14:47:06;;;;;;;8.13;3.72;;;;;;;;;;6152850;23;20396;-58
2022/03/30 14:49:32;;;;;;;3.38;1.98;;;;;;;;;;6129169;23;20001;-56